Time,TemperatureF,DewpointF,PressureIn,WindDirection,WindDirectionDegrees,WindSpeedMPH,WindSpeedGustMPH,Humidity,HourlyPrecipIn,Conditions,Clouds,dailyrainin,SoftwareType,DateUTC
2013-09-04 00:04:00,71.7,66.0,29.93,NW,319,0.0,0.0,83,0.00,,,0.00,weatherlink.com 1.10,2013-09-04 04:04:00,
2013-09-04 00:19:00,71.9,66.0,29.93,NW,306,0.0,0.0,82,0.00,,,0.00,weatherlink.com 1.10,2013-09-04 04:19:00,
2013-09-04 00:34:00,72.1,66.0,29.93,WNW,300,0.0,0.0,81,0.00,,,0.00,weatherlink.com 1.10,2013-09-04 04:34:00,
2013-09-04 00:49:00,71.9,66.0,29.94,NW,313,0.0,0.0,81,0.00,,,0.00,weatherlink.com 1.10,2013-09-04 04:49:00,
2013-09-04 01:04:00,71.2,66.0,29.93,NW,318,0.0,0.0,82,0.00,,,0.00,weatherlink.com 1.10,2013-09-04 05:04:00,
2013-09-04 01:19:00,69.9,66.0,29.93,North,360,0.0,0.0,86,0.00,,,0.00,weatherlink.com 1.10,2013-09-04 05:19:00,
2013-09-04 01:34:00,68.2,65.0,29.93,NE,38,0.0,0.0,89,0.00,,,0.00,weatherlink.com 1.10,2013-09-04 05:34:00,
2013-09-04 01:49:00,66.9,65.0,29.94,NE,38,0.0,0.0,92,0.00,,,0.00,weatherlink.com 1.10,2013-09-04 05:49:00,
2013-09-04 02:04:00,66.3,64.0,29.94,NE,38,0.0,0.0,93,0.00,,,0.00,weatherlink.com 1.10,2013-09-04 06:04:00,
2013-09-04 02:19:00,65.9,64.0,29.94,NW,311,0.0,0.0,94,0.00,,,0.00,weatherlink.com 1.10,2013-09-04 06:19:00,
2013-09-04 02:34:00,67.0,65.0,29.94,NW,311,0.0,0.0,92,0.00,,,0.00,weatherlink.com 1.10,2013-09-04 06:34:00,
2013-09-04 02:49:00,66.7,64.0,29.94,NW,311,0.0,0.0,92,0.00,,,0.00,weatherlink.com 1.10,2013-09-04 06:49:00,
2013-09-04 03:04:00,66.1,64.0,29.94,NW,311,0.0,0.0,92,0.00,,,0.00,weatherlink.com 1.10,2013-09-04 07:04:00,
2013-09-04 03:19:00,65.6,64.0,29.93,NW,311,0.0,0.0,94,0.00,,,0.00,weatherlink.com 1.10,2013-09-04 07:19:00,
2013-09-04 03:34:00,65.0,63.0,29.93,NW,311,0.0,0.0,94,0.00,,,0.00,weatherlink.com 1.10,2013-09-04 07:34:00,
2013-09-04 03:49:00,64.5,63.0,29.94,NW,311,0.0,0.0,94,0.00,,,0.00,weatherlink.com 1.10,2013-09-04 07:49:00,
2013-09-04 04:04:00,64.3,63.0,29.94,NW,311,0.0,0.0,95,0.00,,,0.00,weatherlink.com 1.10,2013-09-04 08:04:00,
2013-09-04 04:19:00,64.2,63.0,29.94,NW,311,0.0,0.0,95,0.00,,,0.00,weatherlink.com 1.10,2013-09-04 08:19:00,
2013-09-04 04:34:00,64.1,63.0,29.94,NNW,347,0.0,0.0,95,0.00,,,0.00,weatherlink.com 1.10,2013-09-04 08:34:00,
2013-09-04 04:49:00,64.2,63.0,29.95,NNW,347,0.0,0.0,96,0.00,,,0.00,weatherlink.com 1.10,2013-09-04 08:49:00,
2013-09-04 05:04:00,63.6,62.0,29.96,NNW,347,0.0,0.0,95,0.00,,,0.00,weatherlink.com 1.10,2013-09-04 09:04:00,
2013-09-04 05:19:00,63.4,62.0,29.96,NNW,347,0.0,0.0,96,0.00,,,0.00,weatherlink.com 1.10,2013-09-04 09:19:00,
2013-09-04 05:34:00,63.0,62.0,29.96,NNW,347,0.0,0.0,96,0.00,,,0.00,weatherlink.com 1.10,2013-09-04 09:34:00,
2013-09-04 05:49:00,62.6,61.0,29.96,NNW,347,0.0,0.0,95,0.00,,,0.00,weatherlink.com 1.10,2013-09-04 09:49:00,
2013-09-04 06:04:00,62.5,61.0,29.97,NNW,347,0.0,0.0,96,0.00,,,0.00,weatherlink.com 1.10,2013-09-04 10:04:00,
2013-09-04 06:19:00,62.6,62.0,29.98,NNW,347,0.0,0.0,96,0.00,,,0.00,weatherlink.com 1.10,2013-09-04 10:19:00,
2013-09-04 06:34:00,62.6,62.0,29.98,NNW,347,0.0,0.0,96,0.00,,,0.00,weatherlink.com 1.10,2013-09-04 10:34:00,
2013-09-04 06:50:00,62.3,61.0,29.98,NNW,347,0.0,0.0,96,0.00,,,0.00,weatherlink.com 1.10,2013-09-04 10:50:00,
2013-09-04 07:05:00,62.2,61.0,29.99,NNW,347,0.0,0.0,96,0.00,,,0.00,weatherlink.com 1.10,2013-09-04 11:05:00,
2013-09-04 07:20:00,61.9,61.0,30.00,NNW,347,0.0,0.0,96,0.00,,,0.00,weatherlink.com 1.10,2013-09-04 11:20:00,
2013-09-04 07:35:00,62.0,61.0,30.01,NNW,347,0.0,0.0,96,0.00,,,0.00,weatherlink.com 1.10,2013-09-04 11:35:00,
2013-09-04 07:50:00,62.8,62.0,30.02,NE,37,0.0,0.0,97,0.00,,,0.00,weatherlink.com 1.10,2013-09-04 11:50:00,
2013-09-04 08:05:00,63.2,62.0,30.02,NE,37,0.0,0.0,97,0.00,,,0.00,weatherlink.com 1.10,2013-09-04 12:05:00,
2013-09-04 08:20:00,65.2,64.0,30.02,NE,37,0.0,0.0,97,0.00,,,0.00,weatherlink.com 1.10,2013-09-04 12:20:00,
2013-09-04 08:35:00,66.7,65.0,30.03,North,360,0.0,0.0,93,0.00,,,0.00,weatherlink.com 1.10,2013-09-04 12:35:00,
2013-09-04 08:50:00,68.2,65.0,30.03,North,5,0.0,0.0,90,0.00,,,0.00,weatherlink.com 1.10,2013-09-04 12:50:00,
2013-09-04 09:05:00,69.2,66.0,30.04,NNE,15,0.0,0.0,88,0.00,,,0.00,weatherlink.com 1.10,2013-09-04 13:05:00,
2013-09-04 09:20:00,71.3,67.0,30.04,NNE,15,0.0,0.0,86,0.00,,,0.00,weatherlink.com 1.10,2013-09-04 13:20:00,
2013-09-04 09:35:00,72.7,66.0,30.04,ENE,59,0.0,0.0,80,0.00,,,0.00,weatherlink.com 1.10,2013-09-04 13:35:00,
2013-09-04 09:50:00,73.0,65.0,30.04,ENE,73,0.0,0.0,76,0.00,,,0.00,weatherlink.com 1.10,2013-09-04 13:50:00,
2013-09-04 10:05:00,73.9,66.0,30.05,NE,42,0.0,0.0,77,0.00,,,0.00,weatherlink.com 1.10,2013-09-04 14:05:00,
2013-09-04 10:20:00,74.6,66.0,30.05,ENE,71,0.0,0.0,75,0.00,,,0.00,weatherlink.com 1.10,2013-09-04 14:20:00,
2013-09-04 10:35:00,75.9,65.0,30.05,East,90,0.0,0.0,68,0.00,,,0.00,weatherlink.com 1.10,2013-09-04 14:35:00,
2013-09-04 10:50:00,76.4,66.0,30.05,East,95,0.0,0.0,70,0.00,,,0.00,weatherlink.com 1.10,2013-09-04 14:50:00,
2013-09-04 11:05:00,77.1,65.0,30.05,NE,36,0.0,0.0,67,0.00,,,0.00,weatherlink.com 1.10,2013-09-04 15:05:00,
2013-09-04 11:20:00,77.4,65.0,30.05,ENE,67,0.0,0.0,66,0.00,,,0.00,weatherlink.com 1.10,2013-09-04 15:20:00,
2013-09-04 11:35:00,78.1,64.0,30.05,ENE,60,0.0,0.0,62,0.00,,,0.00,weatherlink.com 1.10,2013-09-04 15:35:00,
2013-09-04 11:50:00,78.7,65.0,30.05,WNW,283,0.0,0.0,64,0.00,,,0.00,weatherlink.com 1.10,2013-09-04 15:50:00,
2013-09-04 12:05:00,77.7,65.0,30.05,West,265,0.0,0.0,65,0.00,,,0.00,weatherlink.com 1.10,2013-09-04 16:05:00,
2013-09-04 12:20:00,78.8,66.0,30.05,ESE,104,0.0,0.0,64,0.00,,,0.00,weatherlink.com 1.10,2013-09-04 16:20:00,
2013-09-04 12:35:00,79.5,66.0,30.05,ENE,60,0.0,0.0,63,0.00,,,0.00,weatherlink.com 1.10,2013-09-04 16:35:00,
2013-09-04 12:50:00,80.3,66.0,30.04,SE,142,0.0,0.0,61,0.00,,,0.00,weatherlink.com 1.10,2013-09-04 16:50:00,
2013-09-04 13:05:00,80.2,65.0,30.04,WNW,286,0.0,0.0,60,0.00,,,0.00,weatherlink.com 1.10,2013-09-04 17:05:00,
2013-09-04 13:20:00,81.4,67.0,30.03,South,185,0.0,0.0,62,0.00,,,0.00,weatherlink.com 1.10,2013-09-04 17:20:00,
2013-09-04 13:35:00,80.5,66.0,30.03,SE,139,0.0,0.0,62,0.00,,,0.00,weatherlink.com 1.10,2013-09-04 17:35:00,
2013-09-04 13:50:00,79.9,67.0,30.03,ESE,117,0.0,0.0,64,0.00,,,0.00,weatherlink.com 1.10,2013-09-04 17:50:00,
2013-09-04 14:05:00,79.5,68.0,30.03,ESE,117,0.0,0.0,67,0.00,,,0.00,weatherlink.com 1.10,2013-09-04 18:05:00,
2013-09-04 14:20:00,81.4,67.0,30.03,SE,145,0.0,0.0,61,0.00,,,0.00,weatherlink.com 1.10,2013-09-04 18:20:00,
2013-09-04 14:35:00,81.7,67.0,30.02,SSE,156,0.0,0.0,62,0.00,,,0.00,weatherlink.com 1.10,2013-09-04 18:35:00,
2013-09-04 14:50:00,81.9,68.0,30.02,SE,146,0.0,0.0,63,0.00,,,0.00,weatherlink.com 1.10,2013-09-04 18:50:00,
2013-09-04 15:05:00,82.4,68.0,30.02,SSW,205,0.0,0.0,61,0.00,,,0.00,weatherlink.com 1.10,2013-09-04 19:05:00,
2013-09-04 15:20:00,83.2,66.0,30.02,WSW,240,0.0,0.0,57,0.00,,,0.00,weatherlink.com 1.10,2013-09-04 19:20:00,
2013-09-04 15:35:00,83.6,68.0,30.01,SE,135,0.0,0.0,60,0.00,,,0.00,weatherlink.com 1.10,2013-09-04 19:35:00,
2013-09-04 15:50:00,83.5,67.0,30.00,South,182,0.0,0.0,58,0.00,,,0.00,weatherlink.com 1.10,2013-09-04 19:50:00,
2013-09-04 16:05:00,83.8,67.0,30.00,SE,140,0.0,0.0,57,0.00,,,0.00,weatherlink.com 1.10,2013-09-04 20:05:00,
2013-09-04 16:20:00,84.0,69.0,30.00,East,84,0.0,0.0,60,0.00,,,0.00,weatherlink.com 1.10,2013-09-04 20:20:00,
2013-09-04 16:35:00,84.1,68.0,30.00,SSW,210,0.0,0.0,58,0.00,,,0.00,weatherlink.com 1.10,2013-09-04 20:35:00,
2013-09-04 16:50:00,84.1,68.0,29.99,WNW,284,0.0,0.0,59,0.00,,,0.00,weatherlink.com 1.10,2013-09-04 20:50:00,
2013-09-04 17:05:00,84.1,69.0,29.99,SE,132,0.0,0.0,61,0.00,,,0.00,weatherlink.com 1.10,2013-09-04 21:05:00,
2013-09-04 17:20:00,84.0,68.0,29.98,WSW,246,0.0,0.0,58,0.00,,,0.00,weatherlink.com 1.10,2013-09-04 21:20:00,
2013-09-04 17:35:00,84.0,68.0,29.98,South,190,0.0,0.0,58,0.00,,,0.00,weatherlink.com 1.10,2013-09-04 21:35:00,
2013-09-04 17:50:00,84.1,68.0,29.98,SE,144,0.0,0.0,59,0.00,,,0.00,weatherlink.com 1.10,2013-09-04 21:50:00,
2013-09-04 18:05:00,84.5,71.0,29.98,SSE,155,0.0,0.0,64,0.00,,,0.00,weatherlink.com 1.10,2013-09-04 22:05:00,
2013-09-04 18:20:00,84.4,69.0,29.99,SE,144,0.0,0.0,60,0.00,,,0.00,weatherlink.com 1.10,2013-09-04 22:20:00,
2013-09-04 18:35:00,83.5,70.0,29.99,SSE,152,0.0,0.0,64,0.00,,,0.00,weatherlink.com 1.10,2013-09-04 22:35:00,
2013-09-04 18:50:00,82.0,71.0,29.99,SSE,149,0.0,0.0,70,0.00,,,0.00,weatherlink.com 1.10,2013-09-04 22:50:00,
2013-09-04 19:05:00,80.2,70.0,29.99,NNE,16,0.0,0.0,71,0.00,,,0.00,weatherlink.com 1.10,2013-09-04 23:05:00,
2013-09-04 19:21:00,79.0,70.0,29.99,ENE,57,0.0,0.0,75,0.00,,,0.00,weatherlink.com 1.10,2013-09-04 23:21:00,
2013-09-04 19:36:00,77.1,71.0,29.98,SSE,165,0.0,0.0,80,0.00,,,0.00,weatherlink.com 1.10,2013-09-04 23:36:00,
2013-09-04 19:51:00,75.6,70.0,29.99,SE,132,0.0,0.0,83,0.00,,,0.00,weatherlink.com 1.10,2013-09-04 23:51:00,
2013-09-04 20:06:00,74.4,70.0,29.99,SE,132,0.0,0.0,86,0.00,,,0.00,weatherlink.com 1.10,2013-09-05 00:06:00,
2013-09-04 20:21:00,73.1,69.0,30.00,SE,131,0.0,0.0,88,0.00,,,0.00,weatherlink.com 1.10,2013-09-05 00:21:00,
2013-09-04 20:36:00,71.8,69.0,30.01,SE,131,0.0,0.0,90,0.00,,,0.00,weatherlink.com 1.10,2013-09-05 00:36:00,
2013-09-04 20:51:00,70.9,68.0,30.01,SE,132,0.0,0.0,91,0.00,,,0.00,weatherlink.com 1.10,2013-09-05 00:51:00,
2013-09-04 21:06:00,70.1,68.0,30.02,SE,131,0.0,0.0,92,0.00,,,0.00,weatherlink.com 1.10,2013-09-05 01:06:00,
2013-09-04 21:21:00,69.5,68.0,30.03,SE,132,0.0,0.0,93,0.00,,,0.00,weatherlink.com 1.10,2013-09-05 01:21:00,
2013-09-04 21:36:00,69.2,67.0,30.03,SE,132,0.0,0.0,93,0.00,,,0.00,weatherlink.com 1.10,2013-09-05 01:36:00,
2013-09-04 21:51:00,68.8,67.0,30.04,SE,132,0.0,0.0,94,0.00,,,0.00,weatherlink.com 1.10,2013-09-05 01:51:00,
2013-09-04 22:06:00,68.5,67.0,30.04,SE,132,0.0,0.0,94,0.00,,,0.00,weatherlink.com 1.10,2013-09-05 02:06:00,
2013-09-04 22:21:00,68.0,66.0,30.04,SE,132,0.0,0.0,94,0.00,,,0.00,weatherlink.com 1.10,2013-09-05 02:21:00,
2013-09-04 22:36:00,67.8,66.0,30.05,SE,132,0.0,0.0,95,0.00,,,0.00,weatherlink.com 1.10,2013-09-05 02:36:00,
2013-09-04 22:51:00,67.7,66.0,30.05,SE,132,0.0,0.0,95,0.00,,,0.00,weatherlink.com 1.10,2013-09-05 02:51:00,
2013-09-04 23:06:00,67.4,66.0,30.05,SE,132,0.0,0.0,95,0.00,,,0.00,weatherlink.com 1.10,2013-09-05 03:06:00,
2013-09-04 23:21:00,67.6,67.0,30.06,SE,132,0.0,0.0,96,0.00,,,0.00,weatherlink.com 1.10,2013-09-05 03:21:00,
2013-09-04 23:36:00,67.6,67.0,30.06,SE,131,0.0,0.0,96,0.00,,,0.00,weatherlink.com 1.10,2013-09-05 03:36:00,
2013-09-04 23:51:00,67.7,67.0,30.06,SE,132,0.0,0.0,96,0.00,,,0.00,weatherlink.com 1.10,2013-09-05 03:51:00,